Aérodrome :
LOGIN :

S'inscrire | Disclaimer

   EN    FR    IT 

 










Légende :    VFR   VFR Marginal   IFR   IFR Intensif   IFR Très Intensif
Visi : 
Plafond : 
>= 8 km
>= 3000ft
5 à 8 km
1000 à 3000 ft
1500m à 5 km
500 à 1000 ft
800 à 1500m
200 à 500 ft
< 800m
< 200 ft
Symboles :   Orages  Brouillard  Fortes neiges  Fortes précipitations  Vent > 20 kt
SIGMETs :   Divers  Orages  Givrage  Turbulence  Onde Orograph.  Cendres Volcan.






- Altitude de l'aérodrome : 63 ft
- Code IATA : BZM


EHWO - Woensdrecht Airbase

DERNIER METAR :
  • 250655Z AUTO 24013KT 9999 FEW022 SCT025 BKN033 07/04 Q1001 BLU TEMPO 24015G25KT

METARs EXPIRÉS :
  • 250635Z AUTO 24014KT 210V270 9999 FEW023 SCT027 07/04 Q1001 BLU TEMPO 24015G25KT
  • 250625Z AUTO 24013KT 9999 FEW020 SCT023 BKN049 07/04 Q1001 WHT
  • 250555Z AUTO 24013KT 9999 NCD 07/04 Q1002 BLU
  • 250525Z AUTO 25013KT 9999 BKN047 07/04 Q1002 BLU
  • 250507Z AUTO 24016KT 9999 FEW016 SCT042 BKN049 07/04 Q1002 BLU
  • 250455Z AUTO 25011KT 9999 BKN018 OVC023 07/04 Q1002 REDZ WHT
  • 250445Z AUTO 25011KT 9999 -DZ FEW019 SCT023 BKN027 07/04 Q1002 WHT
  • 250443Z AUTO 25013KT 220V280 9999 DZRA FEW027 SCT030 OVC036 07/04 Q1002 BLU
  • 250425Z AUTO 25011KT 9999 FEW038 SCT043 07/03 Q1002 BLU
  • 250355Z AUTO 26011KT 230V300 9999 OVC050 08/03 Q1002 BLU

TAF TAF EHWO
Valide du 25 à 06h jusqu'au 25 à 18h UTC


250544Z 2506/2518 26012G25KT 9999 SCT022 BKN050
TEMPO 2509/2514 26015G30KT
BECMG 2513/2515 22010KT
TEMPO 2513/2518 23015G25KT 4500 SHRA SCT018CB BKN022
PROB40
TEMPO 2514/2518 3000 TSRAGS SCT007 SCT015CB BKN020



MET'MAP, la Météo Aéronautique d'un coup d'oeil ! - Copyright ORBIFLY Décembre 2007 - Disclaimer

ORBIFLY MET'MAP TEAM :

Programmation & Développement : Alexandra Zaïnal
Sur une idée originale de : Baudouin d'Aumeries
Assistance à la programmation : Marc-Olivier Méhu
Soutien technique & logistique : Manuel Goepfert

Contact : metmap@orbifly.com




SOURCES & CREDITS :

   NOAA